AirNav   Pilot Hours Calculator
 
 494 users online  

8WI6 Funk Aerodrome
Luxemburg, Wisconsin, USA

GOING TO LUXEMBURG?


FAA INFORMATION EFFECTIVE 26 JANUARY 2023

Location

FAA Identifier: 8WI6
Lat/Long: 44-36-34.9850N 087-39-10.3350W
44-36.583083N 087-39.172250W
44.6097181,-87.6528708
(estimated)
Elevation: 831 ft. / 253.3 m (surveyed)
Variation: 02W (1985)
From city: 5 miles NE of LUXEMBURG, WI
Time zone: UTC -6 (UTC -5 during Daylight Saving Time)
Zip code: 54217

Airport Operations

Airport use: Private use. Permission required prior to landing
Activation date: 10/1970
Control tower: no
ARTCC: MINNEAPOLIS CENTER
FSS: GREEN BAY FLIGHT SERVICE STATION
Attendance: UNATNDD
Wind indicator: yes
Segmented circle: no

Airport Communications

WX AWOS-3PT at SUE (17 nm NE): 128.325 (920-743-7087)
WX AWOS-3 at OCQ (19 nm NW): 120.925 (920-835-1599)

Nearby radio navigation aids

VOR radial/distance  VOR name  Freq  Var
GRBr081/23.4GREEN BAY VORTAC115.5001E

Airport Services

Parking: tiedowns
Airframe service: NONE
Powerplant service: NONE
Bottled oxygen: NONE
Bulk oxygen: NONE

Runway Information

Runway 18/36

Dimensions: 2800 x 110 ft. / 853 x 34 m
SLOPES 2 FT DOWNHILL FM SOUTH END FOR FIRST 1000 FT.
Surface: turf, in fair condition
Runway edge markings: THR MKD WITH WHITE BARRELS.
RUNWAY 18  RUNWAY 36
Traffic pattern: leftleft
Markings: nonenone
Obstructions: 79 ft. tree, 1580 ft. from runway, 125 ft. right of centerline, 20:1 slope to clearnone

Airport Ownership and Management from official FAA records

Ownership: Privately-owned
Owner: FUNK AERODROME L. L. CORP
1931 AIRPORT DR
GREEN BAY, WI 54313
Phone 920-217-8761
Manager: DANIEL FULWILER
1931 AIRPORT DR
GREEN BAY, WI 54313
Phone 920-217-8761
EMAIL ADDRESS: FULWILER@CHARTER.NET (ALL LOWE CASE)

Airport Operational Statistics

Aircraft based on the field: 5
Single engine airplanes: 5
    
Aircraft operations: 150/year *
67% local general aviation
33% transient general aviation
* for 12-month period ending 24 August 1993

Additional Remarks

ARPT CLSD WINTERS DURG SNOW.
FOR CD CTC MINNEAPOLIS ARTCC AT 651-463-5588.

Instrument Procedures

There are no published instrument procedures at 8WI6.

Some nearby airports with instrument procedures:

KSUE - Door County Cherryland Airport (17 nm NE)
KOCQ - Oconto/J Douglas Bake Municipal Airport (19 nm NW)
KGRB - Green Bay/Austin Straubel International Airport (22 nm W)
KMTW - Manitowoc County Airport (29 nm S)
KMNM - Menominee Regional Airport (31 nm N)
 
Loc | Ops | Rwys | IFR | FBO | Links
Com | Nav | Svcs | Stats | Notes
Area around 8WI6 (Funk Aerodrome)
 
Road maps at: MapQuest Bing Google
 
Aerial photo
No photo
 
Sectional chart

 
Airport distance calculator
Flying to Funk Aerodrome? Find the distance to fly.

From to 8WI6

Sunrise and sunset
Times for 27-Jan-2023
 Local
(UTC-6)
 Zulu
(UTC)
Morning civil twilight06:4412:44
Sunrise07:1613:16
Sunset16:5122:51
Evening civil twilight17:2323:23

Current date and time
Zulu (UTC)  27-Jan-2023 10:44:28
Local (UTC-6)  27-Jan-2023 04:44:28
 
METAR
KSUE 
18nm NE 
271034Z AUTO 21010KT 10SM FEW018 M09/M13 A2976 RMK AO2 FZRANO
KOCQ 
19nm NW 
271035Z AUTO 20007KT 10SM OVC015 M10/M12 A2976 RMK AO1 T11021125
KGRB 
22nm W 
271037Z AUTO 18008KT 10SM SCT011 SCT022 M11/M14 A2975 RMK AO2 T11111139
KMTW 
30nm S 
270956Z AUTO 22010KT 10SM CLR M10/M14 A2983 RMK AO2 SLP114 T11001139 FZRANO
KMNM 
30nm N 
270957Z AUTO 10SM CLR M09/M12 A2976 RMK AO2 SLP099 T10891122 FZRANO PNO $
TAF
KGRB 
22nm W 
270520Z 2706/2806 22008KT P6SM SCT015 TEMPO 2709/2712 BKN015 FM271200 19012G20KT P6SM SCT015 BKN040 WS020/21040KT TEMPO 2713/2714 4SM -SN BKN025 FM271400 21015G27KT 2SM -SN BKN015 OVC025 WS020/21045KT TEMPO 2714/2718 3/4SM -SN OVC012 FM272000 24014G24KT P6SM -SHSN OVC022 FM272200 27016G26KT P6SM BKN030 FM280400 28012G20KT P6SM SCT035
NOTAMs
Click for the latest NOTAMs
NOTAMs are issued by the DoD/FAA and will open in a separate window not controlled by AirNav.

 

 
 

Would you like to see your business listed on this page?

 If your business provides an interesting product or service to pilots, flight crews, aircraft, or users of the Funk Aerodrome, you should consider listing it here.  To start the listing process, click on the button below
 
Add a business
 

Other Pages about Funk Aerodrome

Update a link
 
Copyright © AirNav, LLC. All rights reserved. Privacy Policy  Contact